Time;durP1;ratioP1;P1;durP2;ratioP2;P2;SDS_P1;SDS_P2;PMS_P1;PMS_P2;Temp;Humidity;BMP_temperature;BMP_pressure;BME280_temperature;BME280_humidity;BME280_pressure;Samples;Min_cycle;Max_cycle;Signal;HPM_P1;HPM_P2
2023/02/04 00:01:38;;;;;;;24.60;7.03;;;9.00;99.90;;;;;;4923188;29;20702;-69
2023/02/04 00:04:04;;;;;;;22.77;6.07;;;9.00;99.90;;;;;;4929941;29;20227;-69
2023/02/04 00:06:29;;;;;;;16.23;4.70;;;9.00;99.90;;;;;;4928309;29;20199;-69
2023/02/04 00:08:55;;;;;;;25.73;5.30;;;9.00;99.90;;;;;;4909745;29;20246;-69
2023/02/04 00:11:20;;;;;;;16.33;4.80;;;9.00;99.90;;;;;;4925006;29;20214;-69
2023/02/04 00:13:46;;;;;;;33.13;6.97;;;9.00;99.90;;;;;;4923208;29;20199;-69
2023/02/04 00:16:11;;;;;;;26.90;5.00;;;9.00;99.90;;;;;;4921741;29;20195;-69
2023/02/04 00:18:37;;;;;;;20.20;6.30;;;9.00;99.90;;;;;;4919843;29;20223;-69
2023/02/04 00:21:02;;;;;;;23.07;5.33;;;9.00;99.90;;;;;;4918147;29;20540;-69
2023/02/04 00:23:28;;;;;;;25.07;5.77;;;9.00;99.90;;;;;;4917595;29;20196;-69
2023/02/04 00:25:53;;;;;;;20.70;5.80;;;9.00;99.90;;;;;;4919271;29;20219;-69
2023/02/04 00:28:19;;;;;;;17.13;4.87;;;9.00;99.90;;;;;;4920717;29;20192;-69
2023/02/04 00:30:46;;;;;;;35.03;7.63;;;9.00;99.90;;;;;;4922140;29;20322;-69
2023/02/04 00:33:12;;;;;;;28.90;8.00;;;9.00;99.90;;;;;;4923828;29;20199;-69
2023/02/04 00:35:37;;;;;;;15.80;4.10;;;9.00;99.90;;;;;;4926679;29;20794;-69
2023/02/04 00:38:04;;;;;;;23.73;6.10;;;9.10;99.90;;;;;;4925190;29;20490;-69
2023/02/04 00:40:30;;;;;;;13.73;4.57;;;9.10;99.90;;;;;;4923369;29;20667;-67
2023/02/04 00:42:55;;;;;;;17.60;4.80;;;9.10;99.90;;;;;;4921509;29;20520;-69
2023/02/04 00:45:21;;;;;;;27.20;5.73;;;9.00;99.90;;;;;;4919764;29;20647;-69
2023/02/04 00:47:46;;;;;;;27.67;6.13;;;9.10;99.90;;;;;;4918024;29;20230;-69
2023/02/04 00:50:12;;;;;;;31.17;6.90;;;9.00;99.90;;;;;;4916882;29;20207;-67
2023/02/04 00:52:38;;;;;;;28.20;5.60;;;9.10;99.90;;;;;;4918214;29;20183;-67
2023/02/04 00:55:04;;;;;;;20.40;4.87;;;9.10;99.90;;;;;;4919969;29;20266;-67
2023/02/04 00:57:29;;;;;;;29.73;4.73;;;9.10;99.90;;;;;;4921443;29;20334;-67
2023/02/04 00:59:55;;;;;;;29.40;5.83;;;9.10;99.90;;;;;;4923434;29;20993;-69
2023/02/04 01:02:20;;;;;;;19.33;5.20;;;9.10;99.90;;;;;;4924980;29;20183;-67
2023/02/04 01:04:46;;;;;;;10.50;3.97;;;9.10;99.90;;;;;;4926400;29;20193;-68
2023/02/04 01:07:11;;;;;;;18.13;5.57;;;9.00;99.90;;;;;;4928183;29;20192;-67
2023/02/04 01:09:37;;;;;;;17.27;4.43;;;9.00;99.90;;;;;;4930021;29;20187;-67
2023/02/04 01:12:03;;;;;;;30.63;5.23;;;9.00;99.90;;;;;;4932014;29;20222;-67
2023/02/04 01:14:28;;;;;;;22.23;5.43;;;9.00;99.90;;;;;;4925629;29;20188;-67
2023/02/04 01:16:54;;;;;;;20.27;5.30;;;9.00;99.90;;;;;;4916714;29;20211;-67
2023/02/04 01:19:20;;;;;;;26.40;5.07;;;9.00;99.90;;;;;;4917518;29;20180;-68
2023/02/04 01:21:45;;;;;;;22.73;5.27;;;9.00;99.90;;;;;;4918984;29;20184;-67
2023/02/04 01:24:11;;;;;;;14.20;4.13;;;9.00;99.90;;;;;;4920749;29;20211;-67
2023/02/04 01:26:36;;;;;;;22.87;5.50;;;9.00;99.90;;;;;;4928131;29;20596;-67
2023/02/04 01:29:02;;;;;;;30.80;5.50;;;9.00;99.90;;;;;;4926904;29;20192;-67
2023/02/04 01:31:30;;;;;;;18.63;4.93;;;9.00;99.90;;;;;;4925239;29;20235;-68
2023/02/04 01:33:56;;;;;;;14.07;5.07;;;9.00;99.90;;;;;;4923581;29;20192;-68
2023/02/04 01:36:21;;;;;;;23.83;4.77;;;9.00;99.90;;;;;;4921810;29;20796;-67
2023/02/04 01:38:48;;;;;;;27.47;5.20;;;9.00;99.90;;;;;;4920109;29;20198;-67
2023/02/04 01:41:14;;;;;;;19.87;4.73;;;9.00;99.90;;;;;;4918723;29;20195;-67
2023/02/04 01:43:40;;;;;;;26.47;5.20;;;9.00;99.90;;;;;;4916766;29;20931;-67
2023/02/04 01:46:06;;;;;;;23.83;5.27;;;9.00;99.90;;;;;;4916840;29;20431;-67
2023/02/04 01:48:32;;;;;;;26.03;5.60;;;9.00;99.90;;;;;;4915085;29;20202;-67
2023/02/04 01:51:07;;;;;;;20.03;6.07;;;9.00;99.90;;;;;;4920497;29;20218;-67
2023/02/04 01:53:33;;;;;;;11.23;4.20;;;9.00;99.90;;;;;;4905085;29;20483;-67
2023/02/04 01:55:59;;;;;;;18.40;5.27;;;9.00;99.90;;;;;;4923940;29;20490;-67
2023/02/04 01:58:25;;;;;;;29.70;5.43;;;9.00;99.90;;;;;;4925476;29;20563;-67
2023/02/04 02:00:50;;;;;;;16.50;4.77;;;9.00;99.90;;;;;;4929386;29;20869;-67
2023/02/04 02:03:16;;;;;;;36.53;6.13;;;9.00;99.90;;;;;;4932022;29;20221;-68
2023/02/04 02:05:54;;;;;;;21.30;5.53;;;9.00;99.90;;;;;;4915420;29;20571;-68
2023/02/04 02:08:19;;;;;;;14.30;4.40;;;9.00;99.90;;;;;;4920808;29;20179;-70
2023/02/04 02:10:47;;;;;;;30.40;6.10;;;9.00;99.90;;;;;;4919276;29;20440;-69
2023/02/04 02:13:16;;;;;;;19.90;5.80;;;9.00;99.90;;;;;;4919378;29;20183;-69
2023/02/04 02:15:42;;;;;;;20.37;5.13;;;9.00;99.90;;;;;;4920380;29;20943;-69
2023/02/04 02:18:08;;;;;;;24.23;5.43;;;9.00;99.90;;;;;;4930134;29;20482;-69
2023/02/04 02:20:34;;;;;;;34.87;4.97;;;9.00;99.90;;;;;;4924031;29;20450;-69
2023/02/04 02:23:25;;;;;;;26.07;5.30;;;9.00;99.90;;;;;;4930333;29;20802;-69
2023/02/04 02:25:51;;;;;;;23.77;4.60;;;9.00;99.90;;;;;;4926594;29;20770;-69
2023/02/04 02:28:20;;;;;;;31.10;5.27;;;8.90;99.90;;;;;;4929323;29;20447;-69
2023/02/04 02:30:48;;;;;;;28.40;5.10;;;9.00;99.90;;;;;;4927556;29;20231;-69
2023/02/04 02:33:16;;;;;;;32.20;6.17;;;9.00;99.90;;;;;;4923776;29;20447;-69
2023/02/04 02:35:44;;;;;;;27.73;5.17;;;9.00;99.90;;;;;;4921308;29;20822;-69
2023/02/04 02:38:12;;;;;;;25.27;6.30;;;9.00;99.90;;;;;;4919273;29;20490;-69
2023/02/04 02:40:38;;;;;;;21.93;4.73;;;9.00;99.90;;;;;;4919540;29;21017;-69
2023/02/04 02:43:04;;;;;;;22.93;5.73;;;9.00;99.90;;;;;;4921516;29;20538;-69
2023/02/04 02:45:31;;;;;;;22.80;4.60;;;9.00;99.90;;;;;;4923004;29;20195;-69
2023/02/04 02:47:59;;;;;;;16.63;5.27;;;9.00;99.90;;;;;;4924458;29;20450;-69
2023/02/04 02:50:28;;;;;;;27.17;4.93;;;9.00;99.90;;;;;;4926238;29;20431;-68
2023/02/04 02:52:54;;;;;;;27.70;6.57;;;8.90;99.90;;;;;;4928013;29;20432;-68
2023/02/04 02:55:23;;;;;;;18.27;5.30;;;8.90;99.90;;;;;;4926414;29;20438;-68
2023/02/04 02:57:50;;;;;;;32.33;6.90;;;8.90;99.90;;;;;;4924380;29;20486;-68
2023/02/04 03:00:25;;;;;;;25.17;6.40;;;8.90;99.90;;;;;;4922670;29;20470;-68
2023/02/04 03:03:15;;;;;;;20.33;5.67;;;8.90;99.90;;;;;;4935093;29;20442;-69
2023/02/04 03:05:44;;;;;;;14.60;5.50;;;8.90;99.90;;;;;;4936334;29;20510;-68
2023/02/04 03:08:12;;;;;;;19.07;4.87;;;8.90;99.90;;;;;;4936240;29;20439;-68
2023/02/04 03:10:38;;;;;;;25.57;5.67;;;8.90;99.90;;;;;;4933791;29;20431;-68
2023/02/04 03:13:04;;;;;;;20.03;4.90;;;8.90;99.90;;;;;;4932327;29;20465;-68
2023/02/04 03:15:30;;;;;;;18.60;6.00;;;8.90;99.90;;;;;;4930798;29;20189;-67
2023/02/04 03:17:57;;;;;;;12.30;4.20;;;8.90;99.90;;;;;;4929256;29;20255;-68
2023/02/04 03:20:25;;;;;;;23.13;5.63;;;8.90;99.90;;;;;;4927814;29;20439;-68
2023/02/04 03:22:51;;;;;;;24.10;5.07;;;8.90;99.90;;;;;;4924593;29;20446;-68
2023/02/04 03:25:17;;;;;;;20.37;6.20;;;8.90;99.90;;;;;;4930977;29;20431;-69
2023/02/04 03:27:43;;;;;;;15.90;6.33;;;8.90;99.90;;;;;;4932652;29;20465;-68
2023/02/04 03:30:09;;;;;;;23.27;5.93;;;8.90;99.90;;;;;;4934360;29;20190;-68
2023/02/04 03:32:35;;;;;;;21.30;4.90;;;8.90;99.90;;;;;;4916389;29;20242;-69
2023/02/04 03:35:00;;;;;;;26.60;6.07;;;8.90;99.90;;;;;;4918253;29;20432;-68
2023/02/04 03:37:26;;;;;;;30.13;6.33;;;8.90;99.90;;;;;;4920084;29;20222;-68
2023/02/04 03:39:51;;;;;;;21.20;5.80;;;8.80;99.90;;;;;;4921581;29;20548;-68
2023/02/04 05:30:16;;;;;;;26.20;5.70;;;8.80;99.90;;;;;;5951252;23;20490;-66
2023/02/04 05:32:41;;;;;;;21.23;6.00;;;8.80;99.90;;;;;;4858341;29;20564;-64
2023/02/04 05:35:07;;;;;;;23.43;5.77;;;8.80;99.90;;;;;;4861822;29;21000;-64
2023/02/04 05:37:33;;;;;;;23.53;5.30;;;8.80;99.90;;;;;;4863525;29;20201;-64
2023/02/04 05:39:58;;;;;;;25.80;4.73;;;8.80;99.90;;;;;;4863504;29;20442;-64
2023/02/04 05:42:24;;;;;;;18.47;4.67;;;8.80;99.90;;;;;;4863502;29;20190;-64
2023/02/04 05:44:49;;;;;;;23.60;7.17;;;8.80;99.90;;;;;;4863552;29;20186;-63
2023/02/04 05:47:15;;;;;;;18.87;6.53;;;8.90;99.90;;;;;;4863098;29;20189;-63
2023/02/04 05:49:40;;;;;;;16.23;4.40;;;8.90;99.90;;;;;;4862188;29;20227;-63
2023/02/04 05:52:06;;;;;;;17.27;5.30;;;8.90;99.90;;;;;;4862850;29;20206;-64
2023/02/04 05:54:32;;;;;;;25.67;4.63;;;8.90;99.90;;;;;;4862669;29;20204;-64
2023/02/04 05:56:57;;;;;;;21.30;5.63;;;8.90;99.90;;;;;;4862494;29;20272;-64
2023/02/04 05:59:23;;;;;;;20.80;5.40;;;8.90;99.90;;;;;;4862409;29;20201;-64
2023/02/04 06:01:48;;;;;;;16.93;6.17;;;8.90;99.90;;;;;;4862671;29;20634;-64
2023/02/04 06:04:15;;;;;;;27.13;6.33;;;8.90;99.90;;;;;;4862578;29;20186;-64
2023/02/04 06:06:41;;;;;;;23.60;5.70;;;8.90;99.90;;;;;;4862081;29;20225;-64
2023/02/04 06:09:07;;;;;;;31.20;6.30;;;8.80;99.90;;;;;;4862213;29;20533;-65
2023/02/04 06:11:33;;;;;;;13.23;5.73;;;8.80;99.90;;;;;;4861955;29;20737;-64
2023/02/04 06:13:58;;;;;;;20.20;5.63;;;8.90;99.90;;;;;;4862275;29;20204;-64
2023/02/04 06:16:24;;;;;;;34.10;7.80;;;8.90;99.90;;;;;;4862225;29;20638;-64
2023/02/04 06:18:49;;;;;;;29.63;8.33;;;8.80;99.90;;;;;;4861943;29;20205;-65
2023/02/04 06:21:15;;;;;;;26.67;5.80;;;8.80;99.90;;;;;;4862079;29;20244;-64
2023/02/04 06:23:40;;;;;;;19.80;5.30;;;8.90;99.90;;;;;;4861706;29;20340;-66
2023/02/04 06:26:06;;;;;;;28.53;6.20;;;8.80;99.90;;;;;;4861765;29;20221;-66
2023/02/04 06:28:31;;;;;;;24.40;8.73;;;8.80;99.90;;;;;;4861701;29;20193;-65
2023/02/04 06:30:57;;;;;;;24.23;4.50;;;8.80;99.90;;;;;;4861626;29;20241;-65
2023/02/04 06:33:23;;;;;;;23.07;7.30;;;8.80;99.90;;;;;;4861753;29;20601;-64
2023/02/04 06:35:49;;;;;;;21.30;4.70;;;8.80;99.90;;;;;;4861637;29;20638;-65
2023/02/04 06:38:16;;;;;;;25.00;5.70;;;8.80;99.90;;;;;;4861918;29;20663;-65
2023/02/04 06:40:42;;;;;;;20.97;5.17;;;8.80;99.90;;;;;;4860961;29;21006;-65
2023/02/04 06:43:07;;;;;;;22.13;5.10;;;8.80;99.90;;;;;;4861480;29;20450;-64
2023/02/04 06:45:33;;;;;;;23.17;5.57;;;8.80;99.90;;;;;;4860823;29;20224;-64
2023/02/04 06:47:58;;;;;;;36.57;6.30;;;8.80;99.90;;;;;;4861604;29;20238;-63
2023/02/04 06:50:24;;;;;;;19.93;5.60;;;8.80;99.90;;;;;;4861319;29;20194;-64
2023/02/04 06:52:49;;;;;;;30.07;6.50;;;8.80;99.90;;;;;;4861365;29;20182;-64
2023/02/04 06:55:16;;;;;;;32.33;6.97;;;8.80;99.90;;;;;;4861623;29;20198;-64
2023/02/04 06:57:42;;;;;;;36.83;6.30;;;8.80;99.90;;;;;;4861397;29;20270;-64
2023/02/04 07:00:09;;;;;;;24.73;4.20;;;8.80;99.90;;;;;;4861429;29;20454;-64
2023/02/04 07:02:36;;;;;;;17.40;5.90;;;8.80;99.90;;;;;;4861017;29;20501;-64
2023/02/04 07:05:02;;;;;;;39.87;6.70;;;8.80;99.90;;;;;;4861455;29;20438;-64
2023/02/04 07:07:28;;;;;;;27.33;6.47;;;8.80;99.90;;;;;;4860982;29;20465;-65
2023/02/04 07:09:54;;;;;;;25.47;5.50;;;8.70;99.90;;;;;;4861313;29;20930;-65
2023/02/04 07:12:19;;;;;;;19.43;6.40;;;8.70;99.90;;;;;;4859760;29;20197;-65
2023/02/04 07:14:45;;;;;;;27.07;5.17;;;8.70;99.90;;;;;;4861289;29;20197;-65
2023/02/04 07:17:10;;;;;;;17.93;5.10;;;8.70;99.90;;;;;;4860783;29;20290;-66
2023/02/04 07:19:36;;;;;;;28.90;7.23;;;8.70;99.90;;;;;;4860883;29;20226;-67
2023/02/04 07:22:02;;;;;;;17.40;4.90;;;8.70;99.90;;;;;;4860948;29;20189;-65
2023/02/04 07:24:28;;;;;;;19.53;5.77;;;8.70;99.90;;;;;;4860908;29;20740;-67
2023/02/04 07:26:54;;;;;;;28.50;5.30;;;8.70;99.90;;;;;;4860906;29;20547;-67
2023/02/04 07:29:19;;;;;;;22.77;6.70;;;8.70;99.90;;;;;;4860712;29;20186;-68
2023/02/04 07:31:45;;;;;;;26.83;4.63;;;8.70;99.90;;;;;;4860633;29;20245;-66
2023/02/04 07:34:14;;;;;;;22.30;4.67;;;8.80;99.90;;;;;;4860581;29;20717;-64
2023/02/04 07:36:40;;;;;;;39.87;6.30;;;8.80;99.90;;;;;;4860541;29;20200;-65
2023/02/04 07:39:06;;;;;;;33.77;6.17;;;8.80;99.90;;;;;;4860503;29;20446;-65
2023/02/04 07:41:33;;;;;;;25.63;5.43;;;8.80;99.90;;;;;;4860336;29;20185;-65
2023/02/04 07:43:58;;;;;;;20.67;5.20;;;8.80;99.90;;;;;;4860599;29;20494;-66
2023/02/04 07:46:24;;;;;;;27.70;6.20;;;8.80;99.90;;;;;;4860407;29;21029;-66
2023/02/04 07:48:50;;;;;;;22.00;5.60;;;8.80;99.90;;;;;;4860322;29;20189;-66
2023/02/04 07:51:15;;;;;;;22.90;6.90;;;8.80;99.90;;;;;;4860483;29;20197;-66
2023/02/04 07:53:41;;;;;;;18.63;6.87;;;8.80;99.90;;;;;;4859866;29;20253;-65
2023/02/04 07:56:06;;;;;;;21.83;6.47;;;8.90;99.90;;;;;;4860377;29;20280;-66
2023/02/04 07:58:32;;;;;;;24.73;6.70;;;8.90;99.90;;;;;;4859583;29;20238;-67
2023/02/04 08:00:58;;;;;;;18.90;5.80;;;8.90;99.90;;;;;;4860187;29;20245;-67
2023/02/04 08:03:23;;;;;;;24.97;5.70;;;8.90;99.90;;;;;;4860024;29;20197;-66
2023/02/04 08:05:49;;;;;;;28.90;6.60;;;8.90;99.90;;;;;;4859812;29;20216;-67
2023/02/04 08:08:14;;;;;;;26.97;5.70;;;8.90;99.90;;;;;;4860024;29;20232;-66
2023/02/04 08:10:40;;;;;;;24.43;6.17;;;8.90;99.90;;;;;;4858684;29;20301;-66
2023/02/04 08:13:06;;;;;;;27.47;6.13;;;9.00;99.90;;;;;;4859931;29;20181;-66
2023/02/04 08:15:31;;;;;;;31.87;5.70;;;9.00;99.90;;;;;;4859683;29;20533;-66
2023/02/04 08:17:57;;;;;;;25.27;7.80;;;9.00;99.90;;;;;;4860076;29;20210;-65
2023/02/04 08:20:23;;;;;;;26.57;7.50;;;9.00;99.90;;;;;;4859991;29;20634;-68
2023/02/04 08:22:48;;;;;;;30.50;6.00;;;9.00;99.90;;;;;;4859905;29;20202;-66
2023/02/04 08:25:14;;;;;;;24.97;6.03;;;9.00;99.90;;;;;;4859775;29;20438;-66
2023/02/04 08:27:40;;;;;;;19.10;6.17;;;9.00;99.90;;;;;;4859834;29;20199;-65
2023/02/04 08:30:06;;;;;;;23.33;6.03;;;9.00;99.90;;;;;;4859928;29;20188;-66
2023/02/04 08:32:32;;;;;;;25.00;6.87;;;9.00;99.90;;;;;;4859355;29;20244;-66
2023/02/04 08:34:58;;;;;;;14.97;5.50;;;9.10;99.90;;;;;;4859540;29;20442;-65
2023/02/04 08:37:23;;;;;;;29.20;6.13;;;9.10;99.90;;;;;;4859388;29;20262;-66
2023/02/04 08:39:49;;;;;;;25.63;7.07;;;9.10;99.90;;;;;;4859544;29;20834;-65
2023/02/04 08:42:15;;;;;;;35.40;5.60;;;9.10;99.90;;;;;;4859889;29;20224;-66
2023/02/04 08:44:41;;;;;;;22.60;5.90;;;9.10;99.90;;;;;;4859346;29;20194;-66
2023/02/04 08:47:07;;;;;;;37.03;6.10;;;9.20;99.90;;;;;;4859314;29;20438;-67
2023/02/04 08:49:32;;;;;;;29.63;6.47;;;9.20;99.90;;;;;;4859184;29;20216;-67
2023/02/04 08:51:58;;;;;;;30.60;6.50;;;9.20;99.90;;;;;;4859264;29;20434;-67
2023/02/04 08:54:25;;;;;;;21.80;6.37;;;9.20;99.90;;;;;;4859221;29;20182;-66
2023/02/04 08:56:51;;;;;;;22.87;7.93;;;9.20;99.90;;;;;;4856218;29;20197;-67
2023/02/04 08:59:16;;;;;;;29.70;6.07;;;9.20;99.90;;;;;;4856308;29;20446;-67
2023/02/04 09:01:42;;;;;;;28.23;6.17;;;9.20;99.90;;;;;;4859490;29;20237;-66
2023/02/04 09:04:07;;;;;;;30.07;10.20;;;9.30;99.90;;;;;;4859400;29;20182;-66
2023/02/04 09:06:33;;;;;;;21.43;5.63;;;9.30;99.90;;;;;;4859316;29;20244;-66
2023/02/04 09:08:58;;;;;;;34.70;6.00;;;9.30;99.90;;;;;;4860691;29;20649;-66
2023/02/04 09:11:24;;;;;;;27.10;6.60;;;9.40;99.90;;;;;;4863132;29;20194;-66
2023/02/04 09:13:50;;;;;;;34.03;6.93;;;9.40;99.90;;;;;;4863040;29;20197;-66
2023/02/04 09:16:17;;;;;;;19.03;5.97;;;9.40;99.90;;;;;;4863217;29;20215;-66
2023/02/04 09:18:43;;;;;;;18.40;5.40;;;9.50;99.90;;;;;;4846355;29;20243;-65
2023/02/04 09:21:08;;;;;;;18.03;6.40;;;9.50;99.90;;;;;;4862767;29;20442;-65
2023/02/04 09:23:34;;;;;;;30.87;6.87;;;9.50;99.90;;;;;;4862876;29;20209;-66
2023/02/04 09:26:00;;;;;;;23.80;6.10;;;9.60;99.90;;;;;;4862807;29;20217;-66
2023/02/04 09:28:26;;;;;;;30.00;6.47;;;9.60;99.90;;;;;;4862791;29;20280;-66
2023/02/04 09:30:51;;;;;;;21.53;6.60;;;9.60;99.90;;;;;;4862726;29;20520;-67
2023/02/04 09:33:17;;;;;;;35.20;9.83;;;9.60;99.90;;;;;;4862851;29;20446;-68
2023/02/04 09:35:43;;;;;;;37.87;8.80;;;9.70;99.90;;;;;;4862634;29;20194;-67
2023/02/04 09:38:09;;;;;;;23.63;8.57;;;9.60;99.90;;;;;;4861060;29;20308;-68
2023/02/04 09:40:39;;;;;;;33.37;8.50;;;9.70;99.90;;;;;;4862588;29;20189;-66
2023/02/04 09:43:05;;;;;;;23.23;5.70;;;9.70;99.90;;;;;;4861327;29;20198;-66
2023/02/04 09:45:35;;;;;;;29.83;6.70;;;9.70;99.90;;;;;;4860834;29;20445;-65
2023/02/04 09:48:03;;;;;;;29.33;6.87;;;9.70;99.90;;;;;;4861985;29;20450;-66
2023/02/04 09:50:33;;;;;;;37.93;9.40;;;9.80;99.90;;;;;;4860785;29;20501;-65
2023/02/04 09:53:04;;;;;;;42.40;10.10;;;9.90;99.90;;;;;;4861971;29;20430;-67
2023/02/04 09:55:36;;;;;;;36.23;11.83;;;10.00;99.90;;;;;;4860831;29;20457;-67
2023/02/04 09:58:10;;;;;;;36.77;12.70;;;10.10;99.90;;;;;;4862147;29;21040;-67
2023/02/04 10:00:36;;;;;;;34.93;13.43;;;10.20;99.90;;;;;;4862416;29;20505;-66
2023/02/04 10:03:02;;;;;;;42.07;12.73;;;10.20;99.90;;;;;;4861349;29;20458;-66
2023/02/04 10:05:31;;;;;;;34.77;12.00;;;10.30;99.90;;;;;;4861959;29;20190;-66
2023/02/04 10:07:57;;;;;;;44.23;12.43;;;10.30;99.90;;;;;;4862165;29;20438;-66
2023/02/04 10:10:25;;;;;;;58.53;14.90;;;10.30;99.90;;;;;;4862293;29;20442;-66
2023/02/04 10:12:54;;;;;;;35.33;11.60;;;10.30;99.90;;;;;;4860447;29;20450;-66
2023/02/04 10:15:21;;;;;;;41.77;12.43;;;10.30;99.90;;;;;;4861538;29;20434;-66
2023/02/04 10:17:49;;;;;;;29.63;12.07;;;10.30;99.90;;;;;;4861892;29;21009;-67
2023/02/04 10:20:17;;;;;;;48.20;13.07;;;10.30;99.90;;;;;;4861203;29;20474;-67
2023/02/04 10:22:42;;;;;;;42.13;12.20;;;10.30;99.90;;;;;;4861927;29;20450;-68
2023/02/04 10:25:15;;;;;;;38.17;12.63;;;10.40;99.90;;;;;;4861803;29;20538;-66
2023/02/04 10:27:56;;;;;;;32.70;14.13;;;10.30;99.90;;;;;;4861693;29;20205;-67
2023/02/04 10:30:24;;;;;;;45.23;15.47;;;10.30;99.90;;;;;;4860779;29;20872;-66
2023/02/04 10:32:50;;;;;;;39.70;15.37;;;10.30;99.90;;;;;;4859145;29;20519;-67
2023/02/04 10:35:18;;;;;;;30.87;14.90;;;10.30;99.90;;;;;;4860826;29;20458;-67
2023/02/04 10:37:44;;;;;;;41.67;15.27;;;10.30;99.90;;;;;;4861184;29;20546;-66
2023/02/04 10:40:26;;;;;;;33.63;14.03;;;10.40;99.90;;;;;;4861452;29;20436;-66
2023/02/04 10:42:52;;;;;;;43.70;14.80;;;10.40;99.90;;;;;;4861597;29;20450;-66
2023/02/04 10:45:25;;;;;;;29.27;9.00;;;10.40;99.90;;;;;;4861420;29;20442;-67
2023/02/04 10:47:53;;;;;;;26.23;8.50;;;10.40;99.90;;;;;;4858219;29;20828;-67
2023/02/04 10:50:21;;;;;;;38.80;10.20;;;10.40;99.90;;;;;;4860483;29;20529;-67
2023/02/04 10:54:28;;;;;;;36.83;9.13;;;10.40;99.90;;;;;;4860465;29;20426;-66
2023/02/04 10:55:50;;;;;;;32.40;9.80;;;10.40;99.90;;;;;;4860953;29;20498;-67
2023/02/04 10:58:24;;;;;;;41.60;11.77;;;10.50;99.90;;;;;;4861503;29;20481;-67
2023/02/04 11:00:50;;;;;;;22.27;7.80;;;10.50;99.90;;;;;;4859380;29;20434;-67
2023/02/04 11:03:24;;;;;;;29.87;7.00;;;10.50;99.90;;;;;;4861071;29;20447;-66
2023/02/04 11:05:51;;;;;;;30.77;10.47;;;10.40;99.90;;;;;;4862225;29;20239;-66
2023/02/04 11:08:33;;;;;;;32.60;7.73;;;10.40;99.90;;;;;;4862278;29;20446;-66
2023/02/04 11:11:08;;;;;;;25.63;6.70;;;10.50;99.90;;;;;;4861134;29;20438;-66
2023/02/04 11:13:49;;;;;;;26.63;6.70;;;10.50;99.90;;;;;;4859784;29;20484;-65
2023/02/04 11:16:17;;;;;;;33.00;6.93;;;10.60;99.90;;;;;;4861886;29;20962;-67
2023/02/04 11:18:46;;;;;;;22.97;6.07;;;10.60;99.90;;;;;;4861329;29;20482;-66
2023/02/04 11:21:22;;;;;;;21.27;5.23;;;10.60;99.90;;;;;;4861663;29;20469;-66
2023/02/04 11:23:49;;;;;;;23.33;4.87;;;10.70;99.90;;;;;;4861802;29;20448;-65
2023/02/04 11:26:21;;;;;;;27.23;6.67;;;10.60;99.90;;;;;;4861772;29;20442;-65
2023/02/04 11:28:48;;;;;;;24.50;5.93;;;10.70;99.90;;;;;;4861396;29;20431;-66
2023/02/04 11:31:20;;;;;;;23.30;6.93;;;10.70;99.90;;;;;;4861565;29;20471;-66
2023/02/04 11:33:46;;;;;;;24.47;5.63;;;10.70;99.90;;;;;;4859324;29;20962;-67
2023/02/04 11:36:13;;;;;;;35.03;7.83;;;10.70;99.90;;;;;;4860781;29;20519;-67
2023/02/04 11:38:46;;;;;;;30.23;7.50;;;10.70;99.90;;;;;;4861317;29;20482;-67
2023/02/04 11:41:29;;;;;;;24.20;6.67;;;10.70;99.90;;;;;;4861577;29;20930;-67
2023/02/04 11:43:56;;;;;;;26.50;6.73;;;10.80;99.90;;;;;;4861262;29;20450;-67
2023/02/04 11:46:24;;;;;;;26.20;7.10;;;10.80;99.90;;;;;;4861484;29;20446;-67
2023/02/04 11:48:55;;;;;;;28.73;7.87;;;10.80;99.90;;;;;;4860397;29;20953;-67
2023/02/04 11:51:27;;;;;;;25.80;6.40;;;10.80;99.90;;;;;;4861347;29;20442;-68
2023/02/04 11:53:59;;;;;;;23.90;6.57;;;10.70;99.90;;;;;;5118426;27;20904;-68
2023/02/04 11:56:28;;;;;;;29.97;6.20;;;10.70;99.90;;;;;;5118373;28;20433;-66
2023/02/04 11:58:56;;;;;;;30.33;5.97;;;10.70;99.90;;;;;;5117994;28;20272;-66
2023/02/04 12:01:28;;;;;;;23.60;7.07;;;10.80;99.90;;;;;;5121663;28;20426;-68
2023/02/04 12:03:59;;;;;;;25.37;5.80;;;10.70;99.90;;;;;;5123800;28;20474;-66
2023/02/04 12:06:28;;;;;;;27.10;5.90;;;10.70;99.90;;;;;;5125808;28;20434;-66
2023/02/04 12:09:08;;;;;;;27.20;6.80;;;10.70;99.90;;;;;;5127354;28;21102;-66
2023/02/04 12:11:34;;;;;;;34.10;9.03;;;10.70;99.90;;;;;;5107961;28;20426;-66
2023/02/04 12:14:16;;;;;;;29.63;8.07;;;10.80;99.90;;;;;;5110788;28;20491;-66
2023/02/04 12:16:52;;;;;;;25.00;6.80;;;10.80;99.90;;;;;;5126275;28;20469;-66
2023/02/04 12:19:18;;;;;;;21.83;8.50;;;10.80;99.90;;;;;;5111788;28;20963;-66
2023/02/04 12:21:44;;;;;;;28.20;7.17;;;10.80;99.90;;;;;;5115938;28;20431;-66
2023/02/04 12:24:09;;;;;;;27.17;6.77;;;10.80;99.90;;;;;;5118089;28;20189;-68
2023/02/04 12:26:35;;;;;;;16.83;8.17;;;10.90;99.90;;;;;;5119767;28;20897;-66
2023/02/04 12:29:02;;;;;;;21.03;6.90;;;10.90;99.90;;;;;;5121465;28;20275;-66
2023/02/04 12:31:31;;;;;;;24.10;7.73;;;10.90;99.90;;;;;;5122979;28;20232;-66
2023/02/04 12:33:57;;;;;;;52.73;9.33;;;10.90;99.90;;;;;;5112596;28;20801;-66
2023/02/04 12:36:25;;;;;;;23.13;8.43;;;10.90;99.90;;;;;;5112860;28;20426;-66
2023/02/04 12:38:51;;;;;;;23.20;7.60;;;10.90;99.90;;;;;;5111340;28;20514;-66
2023/02/04 12:41:18;;;;;;;22.93;7.00;;;10.90;99.90;;;;;;5110301;28;20510;-66
2023/02/04 12:43:44;;;;;;;32.40;7.13;;;11.00;99.90;;;;;;5111691;28;20272;-66
2023/02/04 12:46:10;;;;;;;25.53;7.67;;;11.00;99.90;;;;;;5113546;28;20532;-66
2023/02/04 12:48:39;;;;;;;25.67;7.90;;;11.00;99.90;;;;;;5115168;28;20293;-66
2023/02/04 12:51:05;;;;;;;19.70;6.60;;;11.10;99.90;;;;;;5121081;28;20185;-66
2023/02/04 12:53:31;;;;;;;25.17;6.23;;;11.10;99.90;;;;;;5119696;28;20489;-66
2023/02/04 12:55:56;;;;;;;25.87;8.20;;;11.10;99.90;;;;;;5118462;28;20181;-65
2023/02/04 12:58:22;;;;;;;24.63;7.60;;;11.20;99.90;;;;;;5116426;28;20169;-66
2023/02/04 13:00:47;;;;;;;19.43;6.80;;;11.20;99.90;;;;;;5114402;28;20188;-66
2023/02/04 13:03:13;;;;;;;24.07;6.97;;;11.10;99.90;;;;;;5111846;28;20212;-66
2023/02/04 13:05:38;;;;;;;20.27;6.83;;;11.00;99.90;;;;;;5097047;28;20539;-66
2023/02/04 13:08:04;;;;;;;25.77;8.73;;;11.00;99.90;;;;;;5096080;28;20174;-66
2023/02/04 13:10:30;;;;;;;27.57;6.70;;;11.00;99.90;;;;;;5097279;28;20178;-66
2023/02/04 13:12:55;;;;;;;33.47;9.00;;;11.00;99.90;;;;;;5109640;28;20212;-66
2023/02/04 13:15:20;;;;;;;29.60;9.90;;;11.10;99.90;;;;;;5110230;28;20181;-66
2023/02/04 13:17:46;;;;;;;26.10;8.67;;;11.10;99.90;;;;;;5108567;28;20218;-66
2023/02/04 13:20:12;;;;;;;17.60;8.40;;;11.10;99.90;;;;;;5106785;28;20222;-66
2023/02/04 13:22:38;;;;;;;18.40;6.77;;;11.00;99.90;;;;;;5105113;28;20196;-66
2023/02/04 13:25:04;;;;;;;19.47;7.73;;;11.00;99.90;;;;;;5103201;28;20423;-66
2023/02/04 13:27:30;;;;;;;30.20;8.37;;;11.00;99.90;;;;;;5100830;28;20201;-66
2023/02/04 13:29:56;;;;;;;25.10;8.37;;;11.00;99.90;;;;;;5110595;28;20517;-66
2023/02/04 13:32:22;;;;;;;33.13;7.00;;;11.00;99.90;;;;;;5106627;28;21040;-68
2023/02/04 13:34:47;;;;;;;31.63;7.40;;;11.00;99.90;;;;;;5095370;28;20185;-66
2023/02/04 13:37:13;;;;;;;22.23;8.10;;;11.00;99.90;;;;;;5096852;28;20323;-66
2023/02/04 13:39:38;;;;;;;23.87;7.33;;;11.00;99.90;;;;;;5098410;28;20221;-66
2023/02/04 13:42:04;;;;;;;21.33;7.80;;;11.00;99.90;;;;;;5099935;28;20606;-66
2023/02/04 13:44:29;;;;;;;27.87;9.00;;;11.00;99.90;;;;;;5101659;28;20182;-66
2023/02/04 13:46:55;;;;;;;26.73;8.47;;;11.00;99.90;;;;;;5103419;28;20285;-66
2023/02/04 13:49:20;;;;;;;25.37;7.27;;;11.00;99.90;;;;;;5105402;28;20194;-66
2023/02/04 13:51:46;;;;;;;23.63;8.40;;;10.90;99.90;;;;;;5106568;28;20193;-66
2023/02/04 13:54:12;;;;;;;23.90;10.20;;;10.90;99.90;;;;;;5108892;28;20185;-68
2023/02/04 13:56:38;;;;;;;24.07;9.30;;;10.90;99.90;;;;;;5110641;28;20538;-66
2023/02/04 13:59:03;;;;;;;30.13;8.77;;;11.00;99.90;;;;;;5112689;28;20189;-66
2023/02/04 14:01:29;;;;;;;22.70;8.20;;;11.00;99.90;;;;;;5114308;28;20426;-66
2023/02/04 14:03:54;;;;;;;25.40;8.47;;;11.00;99.90;;;;;;5114065;28;20181;-66
2023/02/04 14:06:20;;;;;;;26.43;9.63;;;11.00;99.90;;;;;;5112093;28;20177;-66
2023/02/04 14:08:47;;;;;;;33.57;9.17;;;11.00;99.90;;;;;;5110180;28;20196;-66
2023/02/04 14:11:12;;;;;;;22.20;7.90;;;11.10;99.90;;;;;;5108361;28;20790;-66
2023/02/04 14:13:38;;;;;;;26.50;9.87;;;11.10;99.90;;;;;;5104578;28;20474;-66
2023/02/04 14:16:05;;;;;;;23.93;8.83;;;11.10;99.90;;;;;;5104006;28;20189;-66
2023/02/04 14:18:30;;;;;;;24.97;8.93;;;11.10;99.90;;;;;;5102795;28;20281;-66
2023/02/04 14:20:56;;;;;;;30.23;10.80;;;11.10;99.90;;;;;;5099556;28;20449;-65
2023/02/04 14:23:22;;;;;;;20.83;8.77;;;11.20;99.90;;;;;;5097042;28;20192;-65
2023/02/04 14:25:48;;;;;;;13.60;8.00;;;11.20;99.90;;;;;;5095968;28;20185;-66
2023/02/04 14:28:13;;;;;;;28.77;9.27;;;11.20;99.90;;;;;;5106082;28;20433;-65
2023/02/04 14:30:39;;;;;;;26.20;8.80;;;11.30;99.90;;;;;;5112373;28;20185;-65